sensor_id;sensor_type;location;lat;lon;timestamp;P1;durP1;ratioP1;P2;durP2;ratioP2
25962;SDS011;13760;52.588;13.406;2023-04-25T00:02:11;6.75;;;4.50;;
25962;SDS011;13760;52.588;13.406;2023-04-25T00:04:36;7.80;;;4.10;;
25962;SDS011;13760;52.588;13.406;2023-04-25T00:07:03;9.80;;;4.20;;
25962;SDS011;13760;52.588;13.406;2023-04-25T00:09:28;9.48;;;4.30;;
25962;SDS011;13760;52.588;13.406;2023-04-25T00:11:54;8.70;;;4.20;;
25962;SDS011;13760;52.588;13.406;2023-04-25T00:14:20;8.68;;;3.67;;
25962;SDS011;13760;52.588;13.406;2023-04-25T00:16:45;7.38;;;3.50;;
25962;SDS011;13760;52.588;13.406;2023-04-25T00:19:11;5.80;;;3.72;;
25962;SDS011;13760;52.588;13.406;2023-04-25T00:21:38;6.68;;;3.42;;
25962;SDS011;13760;52.588;13.406;2023-04-25T00:24:05;7.18;;;3.70;;
25962;SDS011;13760;52.588;13.406;2023-04-25T00:26:33;6.38;;;3.92;;
25962;SDS011;13760;52.588;13.406;2023-04-25T00:29:00;7.80;;;3.50;;
25962;SDS011;13760;52.588;13.406;2023-04-25T00:31:25;5.93;;;3.33;;
25962;SDS011;13760;52.588;13.406;2023-04-25T00:33:51;8.85;;;3.53;;
25962;SDS011;13760;52.588;13.406;2023-04-25T00:36:18;9.25;;;3.45;;
25962;SDS011;13760;52.588;13.406;2023-04-25T00:38:44;5.93;;;3.67;;
25962;SDS011;13760;52.588;13.406;2023-04-25T00:41:09;8.38;;;3.65;;
25962;SDS011;13760;52.588;13.406;2023-04-25T00:43:36;7.93;;;3.67;;
25962;SDS011;13760;52.588;13.406;2023-04-25T00:46:02;5.82;;;3.40;;
25962;SDS011;13760;52.588;13.406;2023-04-25T00:48:27;9.15;;;3.30;;
25962;SDS011;13760;52.588;13.406;2023-04-25T00:50:54;9.80;;;3.38;;
25962;SDS011;13760;52.588;13.406;2023-04-25T00:53:22;10.85;;;3.53;;
25962;SDS011;13760;52.588;13.406;2023-04-25T00:55:49;6.97;;;3.78;;
25962;SDS011;13760;52.588;13.406;2023-04-25T00:58:18;10.75;;;3.70;;
25962;SDS011;13760;52.588;13.406;2023-04-25T01:00:45;9.52;;;3.33;;
25962;SDS011;13760;52.588;13.406;2023-04-25T01:03:12;9.30;;;3.85;;
25962;SDS011;13760;52.588;13.406;2023-04-25T01:05:42;10.20;;;4.10;;
25962;SDS011;13760;52.588;13.406;2023-04-25T01:08:08;8.52;;;3.63;;
25962;SDS011;13760;52.588;13.406;2023-04-25T01:10:35;13.25;;;4.05;;
25962;SDS011;13760;52.588;13.406;2023-04-25T01:13:01;8.27;;;3.55;;
25962;SDS011;13760;52.588;13.406;2023-04-25T01:15:26;7.70;;;3.63;;
25962;SDS011;13760;52.588;13.406;2023-04-25T01:17:52;7.55;;;3.45;;
25962;SDS011;13760;52.588;13.406;2023-04-25T01:20:19;8.10;;;3.30;;
25962;SDS011;13760;52.588;13.406;2023-04-25T01:22:47;12.25;;;4.10;;
25962;SDS011;13760;52.588;13.406;2023-04-25T01:25:14;6.72;;;3.92;;
25962;SDS011;13760;52.588;13.406;2023-04-25T01:27:40;6.07;;;3.40;;
25962;SDS011;13760;52.588;13.406;2023-04-25T01:30:06;10.70;;;3.53;;
25962;SDS011;13760;52.588;13.406;2023-04-25T01:32:32;9.45;;;4.05;;
25962;SDS011;13760;52.588;13.406;2023-04-25T01:37:39;7.75;;;3.92;;
25962;SDS011;13760;52.588;13.406;2023-04-25T01:40:06;8.48;;;4.20;;
25962;SDS011;13760;52.588;13.406;2023-04-25T01:42:34;8.93;;;3.85;;
25962;SDS011;13760;52.588;13.406;2023-04-25T01:45:01;8.73;;;4.22;;
25962;SDS011;13760;52.588;13.406;2023-04-25T01:47:27;9.05;;;4.05;;
25962;SDS011;13760;52.588;13.406;2023-04-25T01:49:52;7.85;;;3.40;;
25962;SDS011;13760;52.588;13.406;2023-04-25T01:52:18;11.23;;;4.65;;
25962;SDS011;13760;52.588;13.406;2023-04-25T01:54:43;13.05;;;4.30;;
25962;SDS011;13760;52.588;13.406;2023-04-25T01:57:12;10.77;;;4.60;;
25962;SDS011;13760;52.588;13.406;2023-04-25T01:59:38;15.45;;;4.55;;
25962;SDS011;13760;52.588;13.406;2023-04-25T02:02:05;12.20;;;4.32;;
25962;SDS011;13760;52.588;13.406;2023-04-25T02:04:31;12.65;;;4.70;;
25962;SDS011;13760;52.588;13.406;2023-04-25T02:06:57;12.60;;;4.30;;
25962;SDS011;13760;52.588;13.406;2023-04-25T02:09:23;15.10;;;4.78;;
25962;SDS011;13760;52.588;13.406;2023-04-25T02:11:48;9.48;;;3.75;;
25962;SDS011;13760;52.588;13.406;2023-04-25T02:14:14;9.55;;;4.10;;
25962;SDS011;13760;52.588;13.406;2023-04-25T02:16:40;11.45;;;4.45;;
25962;SDS011;13760;52.588;13.406;2023-04-25T02:19:05;12.10;;;4.55;;
25962;SDS011;13760;52.588;13.406;2023-04-25T02:21:31;12.23;;;4.22;;
25962;SDS011;13760;52.588;13.406;2023-04-25T02:23:57;12.00;;;4.43;;
25962;SDS011;13760;52.588;13.406;2023-04-25T02:26:23;9.80;;;4.53;;
25962;SDS011;13760;52.588;13.406;2023-04-25T02:28:48;14.82;;;4.95;;
25962;SDS011;13760;52.588;13.406;2023-04-25T02:31:14;8.93;;;4.55;;
25962;SDS011;13760;52.588;13.406;2023-04-25T02:33:40;8.93;;;4.45;;
25962;SDS011;13760;52.588;13.406;2023-04-25T02:36:06;12.52;;;4.65;;
25962;SDS011;13760;52.588;13.406;2023-04-25T02:38:31;8.70;;;4.55;;
25962;SDS011;13760;52.588;13.406;2023-04-25T02:40:57;10.23;;;4.78;;
25962;SDS011;13760;52.588;13.406;2023-04-25T02:43:23;13.45;;;4.72;;
25962;SDS011;13760;52.588;13.406;2023-04-25T02:45:48;9.60;;;4.75;;
25962;SDS011;13760;52.588;13.406;2023-04-25T02:48:14;14.15;;;5.03;;
25962;SDS011;13760;52.588;13.406;2023-04-25T02:50:39;15.00;;;4.70;;
25962;SDS011;13760;52.588;13.406;2023-04-25T02:53:05;12.15;;;4.97;;
25962;SDS011;13760;52.588;13.406;2023-04-25T02:55:31;13.50;;;5.32;;
25962;SDS011;13760;52.588;13.406;2023-04-25T02:57:56;12.45;;;5.10;;
25962;SDS011;13760;52.588;13.406;2023-04-25T03:00:22;9.93;;;4.88;;
25962;SDS011;13760;52.588;13.406;2023-04-25T03:02:47;9.43;;;4.82;;
25962;SDS011;13760;52.588;13.406;2023-04-25T03:05:13;18.83;;;4.95;;
25962;SDS011;13760;52.588;13.406;2023-04-25T03:07:39;9.35;;;5.10;;
25962;SDS011;13760;52.588;13.406;2023-04-25T03:10:05;14.65;;;5.05;;
25962;SDS011;13760;52.588;13.406;2023-04-25T03:12:32;11.77;;;5.35;;
25962;SDS011;13760;52.588;13.406;2023-04-25T03:14:57;13.32;;;5.63;;
25962;SDS011;13760;52.588;13.406;2023-04-25T03:17:23;10.18;;;5.80;;
25962;SDS011;13760;52.588;13.406;2023-04-25T03:19:48;12.23;;;5.80;;
25962;SDS011;13760;52.588;13.406;2023-04-25T03:22:14;12.75;;;5.78;;
25962;SDS011;13760;52.588;13.406;2023-04-25T03:24:40;11.82;;;5.38;;
25962;SDS011;13760;52.588;13.406;2023-04-25T03:27:05;13.18;;;5.45;;
25962;SDS011;13760;52.588;13.406;2023-04-25T03:29:31;10.90;;;5.13;;
25962;SDS011;13760;52.588;13.406;2023-04-25T03:31:56;13.32;;;5.70;;
25962;SDS011;13760;52.588;13.406;2023-04-25T03:34:22;12.52;;;6.00;;
25962;SDS011;13760;52.588;13.406;2023-04-25T03:36:48;13.70;;;5.78;;
25962;SDS011;13760;52.588;13.406;2023-04-25T03:39:14;14.07;;;5.38;;
25962;SDS011;13760;52.588;13.406;2023-04-25T03:41:40;13.60;;;5.75;;
25962;SDS011;13760;52.588;13.406;2023-04-25T03:44:06;16.30;;;5.97;;
25962;SDS011;13760;52.588;13.406;2023-04-25T03:46:31;10.60;;;5.63;;
25962;SDS011;13760;52.588;13.406;2023-04-25T03:48:57;11.70;;;5.03;;
25962;SDS011;13760;52.588;13.406;2023-04-25T03:51:24;9.23;;;5.13;;
25962;SDS011;13760;52.588;13.406;2023-04-25T03:53:51;15.13;;;5.80;;
25962;SDS011;13760;52.588;13.406;2023-04-25T03:56:17;8.93;;;5.18;;
25962;SDS011;13760;52.588;13.406;2023-04-25T03:58:43;10.55;;;5.55;;
25962;SDS011;13760;52.588;13.406;2023-04-25T04:01:08;10.80;;;5.75;;
25962;SDS011;13760;52.588;13.406;2023-04-25T04:03:35;11.63;;;6.20;;
25962;SDS011;13760;52.588;13.406;2023-04-25T04:06:01;11.32;;;5.18;;
25962;SDS011;13760;52.588;13.406;2023-04-25T04:08:30;16.70;;;6.10;;
25962;SDS011;13760;52.588;13.406;2023-04-25T04:10:57;14.13;;;5.63;;
25962;SDS011;13760;52.588;13.406;2023-04-25T04:13:25;17.83;;;5.45;;
25962;SDS011;13760;52.588;13.406;2023-04-25T04:15:52;10.85;;;5.57;;
25962;SDS011;13760;52.588;13.406;2023-04-25T04:18:17;12.00;;;5.60;;
25962;SDS011;13760;52.588;13.406;2023-04-25T04:20:43;12.60;;;5.90;;
25962;SDS011;13760;52.588;13.406;2023-04-25T04:23:08;13.93;;;5.65;;
25962;SDS011;13760;52.588;13.406;2023-04-25T04:25:34;12.57;;;5.28;;
25962;SDS011;13760;52.588;13.406;2023-04-25T04:28:00;10.65;;;4.93;;
25962;SDS011;13760;52.588;13.406;2023-04-25T04:30:26;14.48;;;6.47;;
25962;SDS011;13760;52.588;13.406;2023-04-25T04:32:55;15.77;;;6.38;;
25962;SDS011;13760;52.588;13.406;2023-04-25T04:35:22;17.95;;;6.40;;
25962;SDS011;13760;52.588;13.406;2023-04-25T04:37:48;9.63;;;5.88;;
25962;SDS011;13760;52.588;13.406;2023-04-25T04:40:14;10.32;;;5.45;;
25962;SDS011;13760;52.588;13.406;2023-04-25T04:42:41;9.30;;;5.32;;
25962;SDS011;13760;52.588;13.406;2023-04-25T04:45:07;11.02;;;5.00;;
25962;SDS011;13760;52.588;13.406;2023-04-25T04:47:34;12.20;;;5.97;;
25962;SDS011;13760;52.588;13.406;2023-04-25T04:50:01;14.00;;;5.75;;
25962;SDS011;13760;52.588;13.406;2023-04-25T04:52:36;15.05;;;5.72;;
25962;SDS011;13760;52.588;13.406;2023-04-25T04:55:03;12.85;;;5.57;;
25962;SDS011;13760;52.588;13.406;2023-04-25T04:57:30;14.27;;;6.00;;
25962;SDS011;13760;52.588;13.406;2023-04-25T04:59:56;12.95;;;4.93;;
25962;SDS011;13760;52.588;13.406;2023-04-25T05:02:21;10.48;;;4.72;;
25962;SDS011;13760;52.588;13.406;2023-04-25T05:04:47;11.27;;;4.60;;
25962;SDS011;13760;52.588;13.406;2023-04-25T05:07:13;10.85;;;4.95;;
25962;SDS011;13760;52.588;13.406;2023-04-25T05:09:38;11.70;;;5.20;;
25962;SDS011;13760;52.588;13.406;2023-04-25T05:12:04;12.38;;;5.40;;
25962;SDS011;13760;52.588;13.406;2023-04-25T05:14:30;12.73;;;6.15;;
25962;SDS011;13760;52.588;13.406;2023-04-25T05:16:55;11.60;;;5.60;;
25962;SDS011;13760;52.588;13.406;2023-04-25T05:19:21;12.10;;;5.55;;
25962;SDS011;13760;52.588;13.406;2023-04-25T05:21:46;13.13;;;5.93;;
25962;SDS011;13760;52.588;13.406;2023-04-25T05:24:12;12.27;;;5.25;;
25962;SDS011;13760;52.588;13.406;2023-04-25T05:26:37;10.77;;;5.40;;
25962;SDS011;13760;52.588;13.406;2023-04-25T05:29:03;11.07;;;5.15;;
25962;SDS011;13760;52.588;13.406;2023-04-25T05:31:33;8.07;;;5.00;;
25962;SDS011;13760;52.588;13.406;2023-04-25T05:33:59;11.73;;;5.88;;
25962;SDS011;13760;52.588;13.406;2023-04-25T05:36:24;10.02;;;5.60;;
25962;SDS011;13760;52.588;13.406;2023-04-25T05:38:50;10.98;;;5.68;;
25962;SDS011;13760;52.588;13.406;2023-04-25T05:41:16;18.02;;;6.00;;
25962;SDS011;13760;52.588;13.406;2023-04-25T05:43:41;10.88;;;5.00;;
25962;SDS011;13760;52.588;13.406;2023-04-25T05:46:12;12.98;;;5.18;;
25962;SDS011;13760;52.588;13.406;2023-04-25T05:48:38;10.35;;;5.40;;
25962;SDS011;13760;52.588;13.406;2023-04-25T05:51:04;14.32;;;6.25;;
25962;SDS011;13760;52.588;13.406;2023-04-25T05:53:30;11.00;;;5.68;;
25962;SDS011;13760;52.588;13.406;2023-04-25T05:55:55;15.05;;;6.00;;
25962;SDS011;13760;52.588;13.406;2023-04-25T05:58:21;15.05;;;6.53;;
25962;SDS011;13760;52.588;13.406;2023-04-25T06:00:47;14.57;;;6.10;;
25962;SDS011;13760;52.588;13.406;2023-04-25T06:03:12;12.88;;;6.65;;
25962;SDS011;13760;52.588;13.406;2023-04-25T06:05:41;12.82;;;6.50;;
25962;SDS011;13760;52.588;13.406;2023-04-25T06:08:07;17.60;;;7.30;;
25962;SDS011;13760;52.588;13.406;2023-04-25T06:10:33;13.00;;;6.13;;
25962;SDS011;13760;52.588;13.406;2023-04-25T06:12:59;14.43;;;6.43;;
25962;SDS011;13760;52.588;13.406;2023-04-25T06:15:25;15.18;;;6.10;;
25962;SDS011;13760;52.588;13.406;2023-04-25T06:17:57;10.07;;;6.13;;
25962;SDS011;13760;52.588;13.406;2023-04-25T06:20:25;13.23;;;6.57;;
25962;SDS011;13760;52.588;13.406;2023-04-25T06:22:51;16.33;;;6.95;;
25962;SDS011;13760;52.588;13.406;2023-04-25T06:25:23;15.15;;;6.40;;
25962;SDS011;13760;52.588;13.406;2023-04-25T06:27:52;11.82;;;6.22;;
25962;SDS011;13760;52.588;13.406;2023-04-25T06:30:18;12.32;;;5.95;;
25962;SDS011;13760;52.588;13.406;2023-04-25T06:32:47;10.75;;;5.88;;
25962;SDS011;13760;52.588;13.406;2023-04-25T06:35:13;14.02;;;6.15;;
25962;SDS011;13760;52.588;13.406;2023-04-25T06:37:38;16.10;;;6.55;;
25962;SDS011;13760;52.588;13.406;2023-04-25T06:40:04;14.57;;;7.03;;
25962;SDS011;13760;52.588;13.406;2023-04-25T06:46:07;18.05;;;6.75;;
25962;SDS011;13760;52.588;13.406;2023-04-25T06:48:39;16.05;;;6.70;;
25962;SDS011;13760;52.588;13.406;2023-04-25T06:54:30;16.45;;;6.57;;
25962;SDS011;13760;52.588;13.406;2023-04-25T06:57:14;21.67;;;6.78;;
25962;SDS011;13760;52.588;13.406;2023-04-25T06:59:48;27.23;;;7.07;;
25962;SDS011;13760;52.588;13.406;2023-04-25T07:02:16;24.02;;;7.78;;
25962;SDS011;13760;52.588;13.406;2023-04-25T07:04:42;13.43;;;6.40;;
25962;SDS011;13760;52.588;13.406;2023-04-25T07:07:07;14.40;;;6.32;;
25962;SDS011;13760;52.588;13.406;2023-04-25T07:09:36;12.15;;;6.30;;
25962;SDS011;13760;52.588;13.406;2023-04-25T07:12:01;13.15;;;6.57;;
25962;SDS011;13760;52.588;13.406;2023-04-25T07:14:27;11.82;;;6.20;;
25962;SDS011;13760;52.588;13.406;2023-04-25T07:16:53;16.42;;;6.10;;
25962;SDS011;13760;52.588;13.406;2023-04-25T07:19:20;15.35;;;6.30;;
25962;SDS011;13760;52.588;13.406;2023-04-25T07:21:46;14.23;;;6.40;;
25962;SDS011;13760;52.588;13.406;2023-04-25T07:24:11;14.65;;;5.60;;
25962;SDS011;13760;52.588;13.406;2023-04-25T07:26:37;15.68;;;6.07;;
25962;SDS011;13760;52.588;13.406;2023-04-25T07:29:03;13.57;;;6.32;;
25962;SDS011;13760;52.588;13.406;2023-04-25T07:31:28;12.80;;;5.72;;
25962;SDS011;13760;52.588;13.406;2023-04-25T07:33:54;19.45;;;6.00;;
25962;SDS011;13760;52.588;13.406;2023-04-25T07:36:19;12.52;;;5.43;;
25962;SDS011;13760;52.588;13.406;2023-04-25T07:38:45;20.02;;;5.65;;
25962;SDS011;13760;52.588;13.406;2023-04-25T07:41:14;15.82;;;4.78;;
25962;SDS011;13760;52.588;13.406;2023-04-25T07:43:39;19.27;;;5.25;;
25962;SDS011;13760;52.588;13.406;2023-04-25T07:46:07;20.55;;;5.30;;
25962;SDS011;13760;52.588;13.406;2023-04-25T07:48:34;17.98;;;5.32;;
25962;SDS011;13760;52.588;13.406;2023-04-25T07:51:03;15.70;;;4.95;;
25962;SDS011;13760;52.588;13.406;2023-04-25T07:53:31;14.80;;;4.95;;
25962;SDS011;13760;52.588;13.406;2023-04-25T07:56:00;21.70;;;5.35;;
25962;SDS011;13760;52.588;13.406;2023-04-25T07:58:26;16.55;;;5.00;;
25962;SDS011;13760;52.588;13.406;2023-04-25T08:00:52;21.67;;;5.03;;
25962;SDS011;13760;52.588;13.406;2023-04-25T08:03:17;23.98;;;5.45;;
25962;SDS011;13760;52.588;13.406;2023-04-25T08:05:43;22.90;;;5.57;;
25962;SDS011;13760;52.588;13.406;2023-04-25T08:08:08;23.08;;;4.88;;
25962;SDS011;13760;52.588;13.406;2023-04-25T08:10:34;21.05;;;4.47;;
25962;SDS011;13760;52.588;13.406;2023-04-25T08:12:59;22.98;;;5.13;;
25962;SDS011;13760;52.588;13.406;2023-04-25T08:15:25;17.80;;;5.00;;
25962;SDS011;13760;52.588;13.406;2023-04-25T08:17:51;24.30;;;4.90;;
25962;SDS011;13760;52.588;13.406;2023-04-25T08:20:16;25.48;;;6.05;;
25962;SDS011;13760;52.588;13.406;2023-04-25T08:22:42;28.02;;;5.35;;
25962;SDS011;13760;52.588;13.406;2023-04-25T08:25:08;18.83;;;5.07;;
25962;SDS011;13760;52.588;13.406;2023-04-25T08:27:34;27.50;;;5.68;;
25962;SDS011;13760;52.588;13.406;2023-04-25T08:30:02;25.02;;;4.88;;
25962;SDS011;13760;52.588;13.406;2023-04-25T08:32:28;23.58;;;4.75;;
25962;SDS011;13760;52.588;13.406;2023-04-25T08:34:54;21.20;;;4.93;;
25962;SDS011;13760;52.588;13.406;2023-04-25T08:37:20;20.45;;;4.88;;
25962;SDS011;13760;52.588;13.406;2023-04-25T08:39:46;24.88;;;5.07;;
25962;SDS011;13760;52.588;13.406;2023-04-25T08:44:42;26.20;;;4.88;;
25962;SDS011;13760;52.588;13.406;2023-04-25T08:47:11;21.13;;;4.55;;
25962;SDS011;13760;52.588;13.406;2023-04-25T08:49:36;17.83;;;4.55;;
25962;SDS011;13760;52.588;13.406;2023-04-25T08:52:04;15.88;;;4.10;;
25962;SDS011;13760;52.588;13.406;2023-04-25T08:54:32;24.92;;;4.75;;
25962;SDS011;13760;52.588;13.406;2023-04-25T08:57:00;15.25;;;4.20;;
25962;SDS011;13760;52.588;13.406;2023-04-25T08:59:27;19.20;;;3.63;;
25962;SDS011;13760;52.588;13.406;2023-04-25T09:01:54;15.48;;;3.63;;
25962;SDS011;13760;52.588;13.406;2023-04-25T09:04:23;13.98;;;3.13;;
25962;SDS011;13760;52.588;13.406;2023-04-25T09:06:49;19.30;;;4.22;;
25962;SDS011;13760;52.588;13.406;2023-04-25T09:09:21;17.38;;;3.92;;
25962;SDS011;13760;52.588;13.406;2023-04-25T09:11:46;16.70;;;3.72;;
25962;SDS011;13760;52.588;13.406;2023-04-25T09:14:19;15.82;;;3.45;;
25962;SDS011;13760;52.588;13.406;2023-04-25T09:17:04;17.90;;;3.95;;
25962;SDS011;13760;52.588;13.406;2023-04-25T09:19:33;14.50;;;4.10;;
25962;SDS011;13760;52.588;13.406;2023-04-25T09:22:01;18.27;;;3.92;;
25962;SDS011;13760;52.588;13.406;2023-04-25T09:24:38;17.73;;;4.25;;
25962;SDS011;13760;52.588;13.406;2023-04-25T09:27:06;22.50;;;3.92;;
25962;SDS011;13760;52.588;13.406;2023-04-25T09:29:34;18.83;;;4.25;;
25962;SDS011;13760;52.588;13.406;2023-04-25T09:32:14;14.13;;;3.95;;
25962;SDS011;13760;52.588;13.406;2023-04-25T09:34:46;19.50;;;3.90;;
25962;SDS011;13760;52.588;13.406;2023-04-25T09:37:17;13.35;;;3.42;;
25962;SDS011;13760;52.588;13.406;2023-04-25T09:39:44;14.13;;;3.58;;
25962;SDS011;13760;52.588;13.406;2023-04-25T09:42:12;19.40;;;4.03;;
25962;SDS011;13760;52.588;13.406;2023-04-25T09:44:46;14.52;;;2.63;;
25962;SDS011;13760;52.588;13.406;2023-04-25T09:47:13;14.32;;;3.25;;
25962;SDS011;13760;52.588;13.406;2023-04-25T09:49:41;17.65;;;3.08;;
25962;SDS011;13760;52.588;13.406;2023-04-25T09:52:08;13.43;;;3.03;;
25962;SDS011;13760;52.588;13.406;2023-04-25T09:54:41;14.07;;;3.17;;
25962;SDS011;13760;52.588;13.406;2023-04-25T09:57:15;13.82;;;3.08;;
25962;SDS011;13760;52.588;13.406;2023-04-25T09:59:48;11.10;;;2.95;;
25962;SDS011;13760;52.588;13.406;2023-04-25T10:02:18;15.73;;;3.20;;
25962;SDS011;13760;52.588;13.406;2023-04-25T10:04:47;13.27;;;2.88;;
25962;SDS011;13760;52.588;13.406;2023-04-25T10:07:16;11.77;;;3.20;;
25962;SDS011;13760;52.588;13.406;2023-04-25T10:09:42;12.23;;;2.92;;
25962;SDS011;13760;52.588;13.406;2023-04-25T10:12:12;9.85;;;2.83;;
25962;SDS011;13760;52.588;13.406;2023-04-25T10:14:37;10.30;;;2.25;;
25962;SDS011;13760;52.588;13.406;2023-04-25T10:17:03;10.35;;;2.72;;
25962;SDS011;13760;52.588;13.406;2023-04-25T10:19:29;14.88;;;3.05;;
25962;SDS011;13760;52.588;13.406;2023-04-25T10:22:11;10.23;;;3.10;;
25962;SDS011;13760;52.588;13.406;2023-04-25T10:24:42;9.07;;;2.78;;
25962;SDS011;13760;52.588;13.406;2023-04-25T10:27:08;13.38;;;3.03;;
25962;SDS011;13760;52.588;13.406;2023-04-25T10:29:34;10.77;;;2.00;;
25962;SDS011;13760;52.588;13.406;2023-04-25T10:32:00;12.25;;;3.40;;
25962;SDS011;13760;52.588;13.406;2023-04-25T10:34:42;12.00;;;2.72;;
25962;SDS011;13760;52.588;13.406;2023-04-25T10:37:13;11.52;;;2.90;;
25962;SDS011;13760;52.588;13.406;2023-04-25T10:39:39;14.30;;;3.10;;
25962;SDS011;13760;52.588;13.406;2023-04-25T10:42:08;14.45;;;3.03;;
25962;SDS011;13760;52.588;13.406;2023-04-25T10:44:34;11.15;;;2.60;;
25962;SDS011;13760;52.588;13.406;2023-04-25T10:47:02;8.82;;;2.90;;
25962;SDS011;13760;52.588;13.406;2023-04-25T10:49:33;9.30;;;2.83;;
25962;SDS011;13760;52.588;13.406;2023-04-25T10:52:44;11.23;;;2.63;;
25962;SDS011;13760;52.588;13.406;2023-04-25T10:54:54;12.57;;;2.80;;
25962;SDS011;13760;52.588;13.406;2023-04-25T11:00:12;9.35;;;2.42;;
25962;SDS011;13760;52.588;13.406;2023-04-25T11:02:43;12.32;;;2.47;;
25962;SDS011;13760;52.588;13.406;2023-04-25T11:05:23;10.90;;;2.80;;
25962;SDS011;13760;52.588;13.406;2023-04-25T11:07:50;11.38;;;2.35;;
25962;SDS011;13760;52.588;13.406;2023-04-25T11:10:26;12.20;;;2.47;;
25962;SDS011;13760;52.588;13.406;2023-04-25T11:12:53;14.98;;;3.60;;
25962;SDS011;13760;52.588;13.406;2023-04-25T11:15:19;9.73;;;2.30;;
25962;SDS011;13760;52.588;13.406;2023-04-25T11:17:44;9.60;;;2.35;;
25962;SDS011;13760;52.588;13.406;2023-04-25T11:20:11;12.70;;;2.63;;
25962;SDS011;13760;52.588;13.406;2023-04-25T11:22:39;11.23;;;2.58;;
25962;SDS011;13760;52.588;13.406;2023-04-25T11:25:08;10.75;;;2.60;;
25962;SDS011;13760;52.588;13.406;2023-04-25T11:27:49;10.27;;;2.80;;
25962;SDS011;13760;52.588;13.406;2023-04-25T11:30:22;13.77;;;2.83;;
25962;SDS011;13760;52.588;13.406;2023-04-25T11:32:48;9.25;;;2.85;;
25962;SDS011;13760;52.588;13.406;2023-04-25T11:35:14;10.88;;;2.45;;
25962;SDS011;13760;52.588;13.406;2023-04-25T11:37:41;9.85;;;2.40;;
25962;SDS011;13760;52.588;13.406;2023-04-25T11:40:08;9.85;;;2.17;;
25962;SDS011;13760;52.588;13.406;2023-04-25T11:42:38;10.32;;;2.35;;
25962;SDS011;13760;52.588;13.406;2023-04-25T11:45:04;12.02;;;2.30;;
25962;SDS011;13760;52.588;13.406;2023-04-25T11:47:31;8.32;;;2.78;;
25962;SDS011;13760;52.588;13.406;2023-04-25T11:49:58;8.48;;;2.17;;
25962;SDS011;13760;52.588;13.406;2023-04-25T11:52:45;10.07;;;2.55;;
25962;SDS011;13760;52.588;13.406;2023-04-25T11:55:13;8.57;;;2.35;;
25962;SDS011;13760;52.588;13.406;2023-04-25T11:57:40;10.48;;;2.40;;
25962;SDS011;13760;52.588;13.406;2023-04-25T12:02:40;12.55;;;2.92;;
25962;SDS011;13760;52.588;13.406;2023-04-25T12:05:10;9.38;;;2.67;;
25962;SDS011;13760;52.588;13.406;2023-04-25T12:07:36;9.50;;;2.60;;
25962;SDS011;13760;52.588;13.406;2023-04-25T12:10:13;7.93;;;2.50;;
25962;SDS011;13760;52.588;13.406;2023-04-25T12:12:45;9.93;;;2.88;;
25962;SDS011;13760;52.588;13.406;2023-04-25T12:15:15;11.95;;;2.42;;
25962;SDS011;13760;52.588;13.406;2023-04-25T12:17:48;10.95;;;2.65;;
25962;SDS011;13760;52.588;13.406;2023-04-25T12:22:42;10.50;;;2.67;;
25962;SDS011;13760;52.588;13.406;2023-04-25T12:25:10;10.07;;;2.67;;
25962;SDS011;13760;52.588;13.406;2023-04-25T12:27:38;9.73;;;2.35;;
25962;SDS011;13760;52.588;13.406;2023-04-25T12:30:07;7.57;;;2.15;;
25962;SDS011;13760;52.588;13.406;2023-04-25T12:32:33;6.43;;;1.90;;
25962;SDS011;13760;52.588;13.406;2023-04-25T12:34:58;7.65;;;2.22;;
25962;SDS011;13760;52.588;13.406;2023-04-25T12:37:24;9.75;;;2.35;;
25962;SDS011;13760;52.588;13.406;2023-04-25T12:39:49;7.50;;;2.55;;
25962;SDS011;13760;52.588;13.406;2023-04-25T12:42:15;9.88;;;2.35;;
25962;SDS011;13760;52.588;13.406;2023-04-25T12:44:41;9.75;;;2.75;;
25962;SDS011;13760;52.588;13.406;2023-04-25T12:47:06;5.93;;;2.35;;
25962;SDS011;13760;52.588;13.406;2023-04-25T12:49:32;10.85;;;2.33;;
25962;SDS011;13760;52.588;13.406;2023-04-25T12:51:58;10.60;;;2.50;;
25962;SDS011;13760;52.588;13.406;2023-04-25T12:54:23;8.68;;;2.20;;
25962;SDS011;13760;52.588;13.406;2023-04-25T12:56:50;8.20;;;2.22;;
25962;SDS011;13760;52.588;13.406;2023-04-25T12:59:16;8.32;;;2.03;;
25962;SDS011;13760;52.588;13.406;2023-04-25T13:01:42;9.60;;;2.25;;
25962;SDS011;13760;52.588;13.406;2023-04-25T13:04:07;7.72;;;1.92;;
25962;SDS011;13760;52.588;13.406;2023-04-25T13:06:33;8.07;;;2.13;;
25962;SDS011;13760;52.588;13.406;2023-04-25T13:08:59;8.27;;;2.30;;
25962;SDS011;13760;52.588;13.406;2023-04-25T13:11:25;7.43;;;2.40;;
25962;SDS011;13760;52.588;13.406;2023-04-25T13:13:50;5.93;;;1.70;;
25962;SDS011;13760;52.588;13.406;2023-04-25T13:16:16;11.75;;;2.22;;
25962;SDS011;13760;52.588;13.406;2023-04-25T13:18:43;7.47;;;2.05;;
25962;SDS011;13760;52.588;13.406;2023-04-25T13:21:09;5.13;;;1.67;;
25962;SDS011;13760;52.588;13.406;2023-04-25T13:23:36;5.80;;;1.63;;
25962;SDS011;13760;52.588;13.406;2023-04-25T13:26:02;5.72;;;1.85;;
25962;SDS011;13760;52.588;13.406;2023-04-25T13:28:28;8.02;;;2.00;;
25962;SDS011;13760;52.588;13.406;2023-04-25T13:30:53;8.85;;;2.30;;
25962;SDS011;13760;52.588;13.406;2023-04-25T13:33:19;7.82;;;1.80;;
25962;SDS011;13760;52.588;13.406;2023-04-25T13:35:46;11.95;;;2.40;;
25962;SDS011;13760;52.588;13.406;2023-04-25T13:38:18;7.22;;;1.90;;
25962;SDS011;13760;52.588;13.406;2023-04-25T13:40:45;6.78;;;2.00;;
25962;SDS011;13760;52.588;13.406;2023-04-25T13:43:10;8.82;;;2.30;;
25962;SDS011;13760;52.588;13.406;2023-04-25T13:45:36;7.45;;;2.20;;
25962;SDS011;13760;52.588;13.406;2023-04-25T13:48:01;7.88;;;2.22;;
25962;SDS011;13760;52.588;13.406;2023-04-25T13:53:19;8.30;;;2.05;;
25962;SDS011;13760;52.588;13.406;2023-04-25T13:55:46;11.90;;;2.20;;
25962;SDS011;13760;52.588;13.406;2023-04-25T13:58:11;7.13;;;2.10;;
25962;SDS011;13760;52.588;13.406;2023-04-25T14:00:37;10.88;;;2.05;;
25962;SDS011;13760;52.588;13.406;2023-04-25T14:03:03;8.82;;;2.00;;
25962;SDS011;13760;52.588;13.406;2023-04-25T14:05:32;7.53;;;2.10;;
25962;SDS011;13760;52.588;13.406;2023-04-25T14:07:59;9.02;;;1.85;;
25962;SDS011;13760;52.588;13.406;2023-04-25T14:10:25;10.85;;;2.53;;
25962;SDS011;13760;52.588;13.406;2023-04-25T14:12:50;9.20;;;2.10;;
25962;SDS011;13760;52.588;13.406;2023-04-25T14:15:16;7.65;;;1.90;;
25962;SDS011;13760;52.588;13.406;2023-04-25T14:17:42;6.25;;;1.60;;
25962;SDS011;13760;52.588;13.406;2023-04-25T14:20:08;6.07;;;1.83;;
25962;SDS011;13760;52.588;13.406;2023-04-25T14:22:34;7.22;;;1.80;;
25962;SDS011;13760;52.588;13.406;2023-04-25T14:24:59;11.45;;;2.40;;
25962;SDS011;13760;52.588;13.406;2023-04-25T14:27:25;7.72;;;2.10;;
25962;SDS011;13760;52.588;13.406;2023-04-25T14:29:51;8.27;;;2.10;;
25962;SDS011;13760;52.588;13.406;2023-04-25T14:32:17;8.23;;;2.00;;
25962;SDS011;13760;52.588;13.406;2023-04-25T14:34:43;5.45;;;2.13;;
25962;SDS011;13760;52.588;13.406;2023-04-25T14:37:08;9.02;;;2.25;;
25962;SDS011;13760;52.588;13.406;2023-04-25T14:39:34;7.00;;;2.00;;
25962;SDS011;13760;52.588;13.406;2023-04-25T14:42:03;9.98;;;2.00;;
25962;SDS011;13760;52.588;13.406;2023-04-25T14:44:28;7.97;;;2.45;;
25962;SDS011;13760;52.588;13.406;2023-04-25T14:46:54;10.77;;;2.03;;
25962;SDS011;13760;52.588;13.406;2023-04-25T14:49:23;7.18;;;1.85;;